sensor_id;sensor_type;location;lat;lon;timestamp;temperature;humidity
7163;DHT22;3623;47.098;15.446;2023-04-24T00:02:04;9.30;99.90
7163;DHT22;3623;47.098;15.446;2023-04-24T00:04:35;9.30;99.90
7163;DHT22;3623;47.098;15.446;2023-04-24T00:07:02;9.30;99.90
7163;DHT22;3623;47.098;15.446;2023-04-24T00:09:29;9.30;99.90
7163;DHT22;3623;47.098;15.446;2023-04-24T00:11:56;9.30;99.90
7163;DHT22;3623;47.098;15.446;2023-04-24T00:14:25;9.20;99.90
7163;DHT22;3623;47.098;15.446;2023-04-24T00:16:53;9.20;99.90
7163;DHT22;3623;47.098;15.446;2023-04-24T00:19:20;9.20;99.90
7163;DHT22;3623;47.098;15.446;2023-04-24T00:21:50;9.20;99.90
7163;DHT22;3623;47.098;15.446;2023-04-24T00:24:38;9.20;99.90
7163;DHT22;3623;47.098;15.446;2023-04-24T00:27:11;9.20;99.90
7163;DHT22;3623;47.098;15.446;2023-04-24T00:29:45;9.10;99.90
7163;DHT22;3623;47.098;15.446;2023-04-24T00:32:17;9.10;99.90
7163;DHT22;3623;47.098;15.446;2023-04-24T00:34:50;9.10;99.90
7163;DHT22;3623;47.098;15.446;2023-04-24T00:37:27;8.80;99.90
7163;DHT22;3623;47.098;15.446;2023-04-24T00:40:02;9.10;99.90
7163;DHT22;3623;47.098;15.446;2023-04-24T00:42:29;9.10;99.90
7163;DHT22;3623;47.098;15.446;2023-04-24T00:45:01;9.10;99.90
7163;DHT22;3623;47.098;15.446;2023-04-24T00:47:30;9.00;99.90
7163;DHT22;3623;47.098;15.446;2023-04-24T00:49:57;9.00;99.90
7163;DHT22;3623;47.098;15.446;2023-04-24T00:52:25;9.00;99.90
7163;DHT22;3623;47.098;15.446;2023-04-24T00:54:57;9.00;99.90
7163;DHT22;3623;47.098;15.446;2023-04-24T00:57:34;9.10;99.90
7163;DHT22;3623;47.098;15.446;2023-04-24T01:00:06;9.10;99.90
7163;DHT22;3623;47.098;15.446;2023-04-24T01:02:41;9.00;99.90
7163;DHT22;3623;47.098;15.446;2023-04-24T01:05:14;9.00;99.90
7163;DHT22;3623;47.098;15.446;2023-04-24T01:08:06;9.30;99.90
7163;DHT22;3623;47.098;15.446;2023-04-24T01:10:57;9.20;99.90
7163;DHT22;3623;47.098;15.446;2023-04-24T01:13:27;9.50;99.90
7163;DHT22;3623;47.098;15.446;2023-04-24T01:16:04;9.00;99.90
7163;DHT22;3623;47.098;15.446;2023-04-24T01:18:34;9.00;99.90
7163;DHT22;3623;47.098;15.446;2023-04-24T01:21:14;8.90;99.90
7163;DHT22;3623;47.098;15.446;2023-04-24T01:23:51;9.00;99.90
7163;DHT22;3623;47.098;15.446;2023-04-24T01:26:27;8.90;99.90
7163;DHT22;3623;47.098;15.446;2023-04-24T01:29:18;9.90;99.90
7163;DHT22;3623;47.098;15.446;2023-04-24T01:31:51;9.00;99.90
7163;DHT22;3623;47.098;15.446;2023-04-24T01:34:27;9.00;99.90
7163;DHT22;3623;47.098;15.446;2023-04-24T01:37:13;8.90;99.90
7163;DHT22;3623;47.098;15.446;2023-04-24T01:39:49;9.10;99.90
7163;DHT22;3623;47.098;15.446;2023-04-24T01:42:19;9.10;99.90
7163;DHT22;3623;47.098;15.446;2023-04-24T01:45:11;8.90;99.90
7163;DHT22;3623;47.098;15.446;2023-04-24T01:47:57;8.90;99.90
7163;DHT22;3623;47.098;15.446;2023-04-24T01:50:43;8.90;99.90
7163;DHT22;3623;47.098;15.446;2023-04-24T01:53:29;8.90;99.90
7163;DHT22;3623;47.098;15.446;2023-04-24T01:56:16;8.90;99.90
7163;DHT22;3623;47.098;15.446;2023-04-24T01:59:03;8.90;99.90
7163;DHT22;3623;47.098;15.446;2023-04-24T02:01:49;8.90;99.90
7163;DHT22;3623;47.098;15.446;2023-04-24T02:04:35;8.90;99.90
7163;DHT22;3623;47.098;15.446;2023-04-24T02:07:21;9.00;99.90
7163;DHT22;3623;47.098;15.446;2023-04-24T02:10:09;9.00;99.90
7163;DHT22;3623;47.098;15.446;2023-04-24T02:12:57;9.00;99.90
7163;DHT22;3623;47.098;15.446;2023-04-24T02:15:44;9.10;99.90
7163;DHT22;3623;47.098;15.446;2023-04-24T02:18:29;9.00;99.90
7163;DHT22;3623;47.098;15.446;2023-04-24T02:21:15;9.00;99.90
7163;DHT22;3623;47.098;15.446;2023-04-24T02:24:01;9.00;99.90
7163;DHT22;3623;47.098;15.446;2023-04-24T02:26:47;9.00;99.90
7163;DHT22;3623;47.098;15.446;2023-04-24T02:29:34;9.00;99.90
7163;DHT22;3623;47.098;15.446;2023-04-24T02:32:20;8.90;99.90
7163;DHT22;3623;47.098;15.446;2023-04-24T02:35:08;8.90;99.90
7163;DHT22;3623;47.098;15.446;2023-04-24T02:37:53;8.90;99.90
7163;DHT22;3623;47.098;15.446;2023-04-24T02:40:39;8.80;99.90
7163;DHT22;3623;47.098;15.446;2023-04-24T02:43:25;8.80;99.90
7163;DHT22;3623;47.098;15.446;2023-04-24T02:46:12;8.80;99.90
7163;DHT22;3623;47.098;15.446;2023-04-24T02:48:57;8.70;99.90
7163;DHT22;3623;47.098;15.446;2023-04-24T02:51:43;8.70;99.90
7163;DHT22;3623;47.098;15.446;2023-04-24T02:54:30;8.70;99.90
7163;DHT22;3623;47.098;15.446;2023-04-24T02:57:15;8.70;99.90
7163;DHT22;3623;47.098;15.446;2023-04-24T03:00:02;8.60;99.90
7163;DHT22;3623;47.098;15.446;2023-04-24T03:02:52;8.60;99.90
7163;DHT22;3623;47.098;15.446;2023-04-24T03:05:39;8.60;99.90
7163;DHT22;3623;47.098;15.446;2023-04-24T03:08:25;8.60;99.90
7163;DHT22;3623;47.098;15.446;2023-04-24T03:11:10;8.70;99.90
7163;DHT22;3623;47.098;15.446;2023-04-24T03:13:56;8.60;99.90
7163;DHT22;3623;47.098;15.446;2023-04-24T03:16:41;8.60;99.90
7163;DHT22;3623;47.098;15.446;2023-04-24T03:19:29;8.60;99.90
7163;DHT22;3623;47.098;15.446;2023-04-24T03:22:14;8.60;99.90
7163;DHT22;3623;47.098;15.446;2023-04-24T03:25:00;8.60;99.90
7163;DHT22;3623;47.098;15.446;2023-04-24T03:27:46;8.60;99.90
7163;DHT22;3623;47.098;15.446;2023-04-24T03:30:32;8.60;99.90
7163;DHT22;3623;47.098;15.446;2023-04-24T03:33:19;8.60;99.90
7163;DHT22;3623;47.098;15.446;2023-04-24T03:36:06;8.60;99.90
7163;DHT22;3623;47.098;15.446;2023-04-24T03:38:52;8.60;99.90
7163;DHT22;3623;47.098;15.446;2023-04-24T03:41:38;8.60;99.90
7163;DHT22;3623;47.098;15.446;2023-04-24T03:44:23;8.60;99.90
7163;DHT22;3623;47.098;15.446;2023-04-24T03:47:09;8.60;99.90
7163;DHT22;3623;47.098;15.446;2023-04-24T03:49:54;8.60;99.90
7163;DHT22;3623;47.098;15.446;2023-04-24T03:52:42;8.70;99.90
7163;DHT22;3623;47.098;15.446;2023-04-24T03:55:27;8.70;99.90
7163;DHT22;3623;47.098;15.446;2023-04-24T03:58:14;8.70;99.90
7163;DHT22;3623;47.098;15.446;2023-04-24T04:01:03;8.70;99.90
7163;DHT22;3623;47.098;15.446;2023-04-24T04:03:52;8.80;99.90
7163;DHT22;3623;47.098;15.446;2023-04-24T04:06:39;8.80;99.90
7163;DHT22;3623;47.098;15.446;2023-04-24T04:09:28;8.80;99.90
7163;DHT22;3623;47.098;15.446;2023-04-24T04:12:14;8.80;99.90
7163;DHT22;3623;47.098;15.446;2023-04-24T04:15:00;8.80;99.90
7163;DHT22;3623;47.098;15.446;2023-04-24T04:17:45;8.80;99.90
7163;DHT22;3623;47.098;15.446;2023-04-24T04:20:31;8.90;99.90
7163;DHT22;3623;47.098;15.446;2023-04-24T04:23:16;8.90;99.90
7163;DHT22;3623;47.098;15.446;2023-04-24T04:26:04;8.90;99.90
7163;DHT22;3623;47.098;15.446;2023-04-24T04:28:50;8.90;99.90
7163;DHT22;3623;47.098;15.446;2023-04-24T04:31:35;9.00;99.90
7163;DHT22;3623;47.098;15.446;2023-04-24T04:34:21;9.00;99.90
7163;DHT22;3623;47.098;15.446;2023-04-24T04:37:07;9.00;99.90
7163;DHT22;3623;47.098;15.446;2023-04-24T04:39:54;9.00;99.90
7163;DHT22;3623;47.098;15.446;2023-04-24T04:42:43;9.10;99.90
7163;DHT22;3623;47.098;15.446;2023-04-24T04:45:32;9.10;99.90
7163;DHT22;3623;47.098;15.446;2023-04-24T04:48:18;9.10;99.90
7163;DHT22;3623;47.098;15.446;2023-04-24T04:51:04;8.90;99.90
7163;DHT22;3623;47.098;15.446;2023-04-24T04:53:50;9.20;99.90
7163;DHT22;3623;47.098;15.446;2023-04-24T04:56:36;9.20;99.90
7163;DHT22;3623;47.098;15.446;2023-04-24T04:59:23;9.30;99.90
7163;DHT22;3623;47.098;15.446;2023-04-24T05:02:09;9.30;99.90
7163;DHT22;3623;47.098;15.446;2023-04-24T05:04:55;9.40;99.90
7163;DHT22;3623;47.098;15.446;2023-04-24T05:07:41;9.40;99.90
7163;DHT22;3623;47.098;15.446;2023-04-24T05:10:27;9.40;99.90
7163;DHT22;3623;47.098;15.446;2023-04-24T05:13:13;9.40;99.90
7163;DHT22;3623;47.098;15.446;2023-04-24T05:16:02;9.40;99.90
7163;DHT22;3623;47.098;15.446;2023-04-24T05:18:48;9.40;99.90
7163;DHT22;3623;47.098;15.446;2023-04-24T05:21:33;9.50;99.90
7163;DHT22;3623;47.098;15.446;2023-04-24T05:24:24;9.50;99.90
7163;DHT22;3623;47.098;15.446;2023-04-24T05:27:10;9.50;99.90
7163;DHT22;3623;47.098;15.446;2023-04-24T05:29:56;9.50;99.90
7163;DHT22;3623;47.098;15.446;2023-04-24T05:32:42;9.60;99.90
7163;DHT22;3623;47.098;15.446;2023-04-24T05:35:29;9.60;99.90
7163;DHT22;3623;47.098;15.446;2023-04-24T05:38:15;9.60;99.90
7163;DHT22;3623;47.098;15.446;2023-04-24T05:41:02;9.60;99.90
7163;DHT22;3623;47.098;15.446;2023-04-24T05:43:48;9.60;99.90
7163;DHT22;3623;47.098;15.446;2023-04-24T05:46:34;9.60;99.90
7163;DHT22;3623;47.098;15.446;2023-04-24T05:49:21;9.60;99.90
7163;DHT22;3623;47.098;15.446;2023-04-24T05:52:07;9.70;99.90
7163;DHT22;3623;47.098;15.446;2023-04-24T05:54:53;9.70;99.90
7163;DHT22;3623;47.098;15.446;2023-04-24T05:57:39;9.90;99.90
7163;DHT22;3623;47.098;15.446;2023-04-24T06:00:25;9.90;99.90
7163;DHT22;3623;47.098;15.446;2023-04-24T06:03:11;10.00;99.90
7163;DHT22;3623;47.098;15.446;2023-04-24T06:05:58;10.10;99.90
7163;DHT22;3623;47.098;15.446;2023-04-24T06:08:44;10.30;99.90
7163;DHT22;3623;47.098;15.446;2023-04-24T06:11:29;10.50;99.90
7163;DHT22;3623;47.098;15.446;2023-04-24T06:14:16;10.60;99.90
7163;DHT22;3623;47.098;15.446;2023-04-24T06:17:02;10.70;99.90
7163;DHT22;3623;47.098;15.446;2023-04-24T06:19:47;10.90;99.90
7163;DHT22;3623;47.098;15.446;2023-04-24T06:22:34;11.00;99.90
7163;DHT22;3623;47.098;15.446;2023-04-24T06:25:21;11.10;99.90
7163;DHT22;3623;47.098;15.446;2023-04-24T06:28:06;11.20;99.90
7163;DHT22;3623;47.098;15.446;2023-04-24T06:30:52;11.30;99.90
7163;DHT22;3623;47.098;15.446;2023-04-24T06:33:37;11.60;99.90
7163;DHT22;3623;47.098;15.446;2023-04-24T06:36:23;11.90;99.90
7163;DHT22;3623;47.098;15.446;2023-04-24T06:39:11;12.00;99.90
7163;DHT22;3623;47.098;15.446;2023-04-24T06:41:56;12.10;99.90
7163;DHT22;3623;47.098;15.446;2023-04-24T06:44:44;12.20;99.90
7163;DHT22;3623;47.098;15.446;2023-04-24T06:47:30;12.40;99.90
7163;DHT22;3623;47.098;15.446;2023-04-24T06:50:16;12.50;99.90
7163;DHT22;3623;47.098;15.446;2023-04-24T06:53:01;12.60;99.90
7163;DHT22;3623;47.098;15.446;2023-04-24T06:55:48;12.70;99.90
7163;DHT22;3623;47.098;15.446;2023-04-24T06:58:34;12.70;99.90
7163;DHT22;3623;47.098;15.446;2023-04-24T07:01:20;12.60;99.90
7163;DHT22;3623;47.098;15.446;2023-04-24T07:04:06;12.60;99.90
7163;DHT22;3623;47.098;15.446;2023-04-24T07:06:52;12.40;99.90
7163;DHT22;3623;47.098;15.446;2023-04-24T07:09:40;12.30;99.90
7163;DHT22;3623;47.098;15.446;2023-04-24T07:12:27;12.40;99.90
7163;DHT22;3623;47.098;15.446;2023-04-24T07:15:16;12.30;99.90
7163;DHT22;3623;47.098;15.446;2023-04-24T07:18:02;12.20;99.90
7163;DHT22;3623;47.098;15.446;2023-04-24T07:20:48;12.10;99.90
7163;DHT22;3623;47.098;15.446;2023-04-24T07:23:35;12.00;99.90
7163;DHT22;3623;47.098;15.446;2023-04-24T07:26:21;11.80;99.90
7163;DHT22;3623;47.098;15.446;2023-04-24T07:29:07;11.70;99.90
7163;DHT22;3623;47.098;15.446;2023-04-24T07:31:54;11.70;99.90
7163;DHT22;3623;47.098;15.446;2023-04-24T07:34:40;11.60;99.90
7163;DHT22;3623;47.098;15.446;2023-04-24T07:37:29;11.60;99.90
7163;DHT22;3623;47.098;15.446;2023-04-24T07:40:15;11.40;99.90
7163;DHT22;3623;47.098;15.446;2023-04-24T07:43:01;11.30;99.90
7163;DHT22;3623;47.098;15.446;2023-04-24T07:45:48;11.10;99.90
7163;DHT22;3623;47.098;15.446;2023-04-24T07:48:33;11.00;99.90
7163;DHT22;3623;47.098;15.446;2023-04-24T07:51:19;11.00;99.90
7163;DHT22;3623;47.098;15.446;2023-04-24T07:54:05;11.00;99.90
7163;DHT22;3623;47.098;15.446;2023-04-24T07:56:51;10.80;99.90
7163;DHT22;3623;47.098;15.446;2023-04-24T07:59:37;10.80;99.90
7163;DHT22;3623;47.098;15.446;2023-04-24T08:02:25;10.80;99.90
7163;DHT22;3623;47.098;15.446;2023-04-24T08:05:11;10.80;99.90
7163;DHT22;3623;47.098;15.446;2023-04-24T08:07:58;10.70;99.90
7163;DHT22;3623;47.098;15.446;2023-04-24T08:10:50;10.80;99.90
7163;DHT22;3623;47.098;15.446;2023-04-24T08:13:36;10.80;99.90
7163;DHT22;3623;47.098;15.446;2023-04-24T08:16:36;10.80;99.90
7163;DHT22;3623;47.098;15.446;2023-04-24T08:19:24;10.90;99.90
7163;DHT22;3623;47.098;15.446;2023-04-24T08:22:09;11.00;99.90
7163;DHT22;3623;47.098;15.446;2023-04-24T08:24:55;11.10;99.90
7163;DHT22;3623;47.098;15.446;2023-04-24T08:27:41;11.00;99.90
7163;DHT22;3623;47.098;15.446;2023-04-24T08:30:28;11.00;99.90
7163;DHT22;3623;47.098;15.446;2023-04-24T08:33:14;11.00;99.90
7163;DHT22;3623;47.098;15.446;2023-04-24T08:36:03;10.90;99.90
7163;DHT22;3623;47.098;15.446;2023-04-24T08:38:49;10.80;99.90
7163;DHT22;3623;47.098;15.446;2023-04-24T08:41:35;10.80;99.90
7163;DHT22;3623;47.098;15.446;2023-04-24T08:44:23;10.80;99.90
7163;DHT22;3623;47.098;15.446;2023-04-24T08:47:12;10.80;99.90
7163;DHT22;3623;47.098;15.446;2023-04-24T08:49:58;10.70;99.90
7163;DHT22;3623;47.098;15.446;2023-04-24T08:52:49;10.70;99.90
7163;DHT22;3623;47.098;15.446;2023-04-24T08:55:37;10.70;99.90
7163;DHT22;3623;47.098;15.446;2023-04-24T08:58:28;10.70;99.90
7163;DHT22;3623;47.098;15.446;2023-04-24T09:01:18;10.80;99.90
7163;DHT22;3623;47.098;15.446;2023-04-24T09:04:07;10.80;99.90
7163;DHT22;3623;47.098;15.446;2023-04-24T09:06:56;10.90;99.90
7163;DHT22;3623;47.098;15.446;2023-04-24T09:09:44;11.00;99.90
7163;DHT22;3623;47.098;15.446;2023-04-24T09:12:30;11.10;99.90
7163;DHT22;3623;47.098;15.446;2023-04-24T09:15:23;11.10;99.90
7163;DHT22;3623;47.098;15.446;2023-04-24T09:18:11;11.10;99.90
7163;DHT22;3623;47.098;15.446;2023-04-24T09:21:00;11.10;99.90
7163;DHT22;3623;47.098;15.446;2023-04-24T09:23:46;11.10;99.90
7163;DHT22;3623;47.098;15.446;2023-04-24T09:26:44;11.10;99.90
7163;DHT22;3623;47.098;15.446;2023-04-24T09:29:31;11.10;99.90
7163;DHT22;3623;47.098;15.446;2023-04-24T09:32:22;11.10;99.90
7163;DHT22;3623;47.098;15.446;2023-04-24T09:35:11;11.20;99.90
7163;DHT22;3623;47.098;15.446;2023-04-24T09:37:57;11.10;99.90
7163;DHT22;3623;47.098;15.446;2023-04-24T09:40:43;11.20;99.90
7163;DHT22;3623;47.098;15.446;2023-04-24T09:43:31;11.10;99.90
7163;DHT22;3623;47.098;15.446;2023-04-24T09:46:19;11.20;99.90
7163;DHT22;3623;47.098;15.446;2023-04-24T09:49:12;11.30;99.90
7163;DHT22;3623;47.098;15.446;2023-04-24T09:52:02;11.40;99.90
7163;DHT22;3623;47.098;15.446;2023-04-24T09:54:55;11.50;99.90
7163;DHT22;3623;47.098;15.446;2023-04-24T09:57:51;11.70;99.90
7163;DHT22;3623;47.098;15.446;2023-04-24T10:00:40;12.00;99.90
7163;DHT22;3623;47.098;15.446;2023-04-24T10:03:26;12.20;99.90
7163;DHT22;3623;47.098;15.446;2023-04-24T10:06:15;12.30;99.90
7163;DHT22;3623;47.098;15.446;2023-04-24T10:09:03;12.30;99.90
7163;DHT22;3623;47.098;15.446;2023-04-24T10:11:51;12.40;99.90
7163;DHT22;3623;47.098;15.446;2023-04-24T10:14:37;12.70;99.90
7163;DHT22;3623;47.098;15.446;2023-04-24T10:17:25;13.00;99.90
7163;DHT22;3623;47.098;15.446;2023-04-24T10:20:13;13.30;99.90
7163;DHT22;3623;47.098;15.446;2023-04-24T10:23:13;13.30;99.90
7163;DHT22;3623;47.098;15.446;2023-04-24T10:26:00;13.40;99.90
7163;DHT22;3623;47.098;15.446;2023-04-24T10:28:47;13.40;99.90
7163;DHT22;3623;47.098;15.446;2023-04-24T10:31:33;13.60;99.90
7163;DHT22;3623;47.098;15.446;2023-04-24T10:34:20;13.60;99.90
7163;DHT22;3623;47.098;15.446;2023-04-24T10:37:07;13.70;99.90
7163;DHT22;3623;47.098;15.446;2023-04-24T10:39:53;13.80;99.90
7163;DHT22;3623;47.098;15.446;2023-04-24T10:42:40;14.00;99.90
7163;DHT22;3623;47.098;15.446;2023-04-24T10:45:29;14.00;99.90
7163;DHT22;3623;47.098;15.446;2023-04-24T10:48:15;13.70;99.90
7163;DHT22;3623;47.098;15.446;2023-04-24T10:51:02;13.90;99.90
7163;DHT22;3623;47.098;15.446;2023-04-24T10:53:49;14.10;99.90
7163;DHT22;3623;47.098;15.446;2023-04-24T10:56:35;14.10;99.90
7163;DHT22;3623;47.098;15.446;2023-04-24T10:59:25;14.10;99.90
7163;DHT22;3623;47.098;15.446;2023-04-24T11:02:11;14.10;99.90
7163;DHT22;3623;47.098;15.446;2023-04-24T11:05:03;14.00;99.90
7163;DHT22;3623;47.098;15.446;2023-04-24T11:08:12;14.10;99.90
7163;DHT22;3623;47.098;15.446;2023-04-24T11:10:47;13.90;99.90
7163;DHT22;3623;47.098;15.446;2023-04-24T11:13:22;13.80;99.90
7163;DHT22;3623;47.098;15.446;2023-04-24T11:16:12;13.80;99.90
7163;DHT22;3623;47.098;15.446;2023-04-24T11:18:43;13.80;99.90
7163;DHT22;3623;47.098;15.446;2023-04-24T11:21:17;14.00;99.90
7163;DHT22;3623;47.098;15.446;2023-04-24T11:23:46;14.20;99.90
7163;DHT22;3623;47.098;15.446;2023-04-24T11:26:17;14.20;99.90
7163;DHT22;3623;47.098;15.446;2023-04-24T11:28:46;14.40;99.90
7163;DHT22;3623;47.098;15.446;2023-04-24T11:31:36;14.20;99.90
7163;DHT22;3623;47.098;15.446;2023-04-24T11:34:08;14.10;99.90
7163;DHT22;3623;47.098;15.446;2023-04-24T11:36:36;14.00;99.90
7163;DHT22;3623;47.098;15.446;2023-04-24T11:39:05;14.00;99.90
7163;DHT22;3623;47.098;15.446;2023-04-24T11:41:40;14.10;99.90
7163;DHT22;3623;47.098;15.446;2023-04-24T11:44:10;14.40;99.90
7163;DHT22;3623;47.098;15.446;2023-04-24T11:46:38;14.20;99.90
7163;DHT22;3623;47.098;15.446;2023-04-24T11:49:05;14.00;99.90
7163;DHT22;3623;47.098;15.446;2023-04-24T11:51:33;14.20;99.90
7163;DHT22;3623;47.098;15.446;2023-04-24T11:54:01;14.40;99.90
7163;DHT22;3623;47.098;15.446;2023-04-24T11:56:30;14.40;99.90
7163;DHT22;3623;47.098;15.446;2023-04-24T11:58:57;14.60;99.90
7163;DHT22;3623;47.098;15.446;2023-04-24T12:01:24;14.50;99.90
7163;DHT22;3623;47.098;15.446;2023-04-24T12:03:59;14.40;99.90
7163;DHT22;3623;47.098;15.446;2023-04-24T12:06:26;14.60;99.90
7163;DHT22;3623;47.098;15.446;2023-04-24T12:08:54;14.60;99.90
7163;DHT22;3623;47.098;15.446;2023-04-24T12:11:23;14.60;99.90
7163;DHT22;3623;47.098;15.446;2023-04-24T12:14:10;14.50;99.90
7163;DHT22;3623;47.098;15.446;2023-04-24T12:16:37;14.40;99.90
7163;DHT22;3623;47.098;15.446;2023-04-24T12:19:06;14.30;99.90
7163;DHT22;3623;47.098;15.446;2023-04-24T12:21:33;14.20;99.90
7163;DHT22;3623;47.098;15.446;2023-04-24T12:24:00;14.20;99.90
7163;DHT22;3623;47.098;15.446;2023-04-24T12:26:27;14.30;99.90
7163;DHT22;3623;47.098;15.446;2023-04-24T12:28:54;14.20;99.90
7163;DHT22;3623;47.098;15.446;2023-04-24T12:31:23;14.40;99.90
7163;DHT22;3623;47.098;15.446;2023-04-24T12:33:52;14.60;99.90
7163;DHT22;3623;47.098;15.446;2023-04-24T12:36:21;14.70;99.90
7163;DHT22;3623;47.098;15.446;2023-04-24T12:38:53;14.80;99.90
7163;DHT22;3623;47.098;15.446;2023-04-24T12:41:22;14.80;99.90
7163;DHT22;3623;47.098;15.446;2023-04-24T12:43:57;14.90;99.90
7163;DHT22;3623;47.098;15.446;2023-04-24T12:46:25;15.00;99.90
7163;DHT22;3623;47.098;15.446;2023-04-24T12:48:53;15.00;99.90
7163;DHT22;3623;47.098;15.446;2023-04-24T12:51:24;15.00;99.90
7163;DHT22;3623;47.098;15.446;2023-04-24T12:53:51;15.50;99.90
7163;DHT22;3623;47.098;15.446;2023-04-24T12:56:18;15.80;99.90
7163;DHT22;3623;47.098;15.446;2023-04-24T12:58:46;15.70;99.90
7163;DHT22;3623;47.098;15.446;2023-04-24T13:01:13;15.80;99.90
7163;DHT22;3623;47.098;15.446;2023-04-24T13:03:42;15.60;99.90
7163;DHT22;3623;47.098;15.446;2023-04-24T13:06:11;15.20;99.90
7163;DHT22;3623;47.098;15.446;2023-04-24T13:08:38;15.10;99.90
7163;DHT22;3623;47.098;15.446;2023-04-24T13:11:05;15.10;99.90
7163;DHT22;3623;47.098;15.446;2023-04-24T13:13:32;15.10;99.90
7163;DHT22;3623;47.098;15.446;2023-04-24T13:16:00;15.00;99.90
7163;DHT22;3623;47.098;15.446;2023-04-24T13:18:27;14.90;99.90
7163;DHT22;3623;47.098;15.446;2023-04-24T13:20:55;15.00;99.90
7163;DHT22;3623;47.098;15.446;2023-04-24T13:23:23;15.00;99.90
7163;DHT22;3623;47.098;15.446;2023-04-24T13:25:50;15.00;99.90
7163;DHT22;3623;47.098;15.446;2023-04-24T13:28:17;15.10;99.90
7163;DHT22;3623;47.098;15.446;2023-04-24T13:30:44;14.90;99.90
7163;DHT22;3623;47.098;15.446;2023-04-24T13:33:11;14.80;99.90
7163;DHT22;3623;47.098;15.446;2023-04-24T13:35:39;14.70;99.90
7163;DHT22;3623;47.098;15.446;2023-04-24T13:38:08;14.60;99.90
7163;DHT22;3623;47.098;15.446;2023-04-24T13:40:35;14.50;99.90
7163;DHT22;3623;47.098;15.446;2023-04-24T13:43:02;14.50;99.90
7163;DHT22;3623;47.098;15.446;2023-04-24T13:45:29;14.50;99.90
7163;DHT22;3623;47.098;15.446;2023-04-24T13:47:56;14.50;99.90
7163;DHT22;3623;47.098;15.446;2023-04-24T13:50:24;14.40;99.90
7163;DHT22;3623;47.098;15.446;2023-04-24T13:52:51;14.40;99.90
7163;DHT22;3623;47.098;15.446;2023-04-24T13:55:19;14.40;99.90
7163;DHT22;3623;47.098;15.446;2023-04-24T13:57:46;14.60;99.90
7163;DHT22;3623;47.098;15.446;2023-04-24T14:00:14;14.70;99.90
7163;DHT22;3623;47.098;15.446;2023-04-24T14:02:41;14.80;99.90
7163;DHT22;3623;47.098;15.446;2023-04-24T14:05:08;14.80;99.90
7163;DHT22;3623;47.098;15.446;2023-04-24T14:07:36;14.80;99.90
7163;DHT22;3623;47.098;15.446;2023-04-24T14:10:04;14.70;99.90
7163;DHT22;3623;47.098;15.446;2023-04-24T14:12:32;14.50;99.90
7163;DHT22;3623;47.098;15.446;2023-04-24T14:15:00;14.40;99.90
7163;DHT22;3623;47.098;15.446;2023-04-24T14:17:27;14.20;99.90
7163;DHT22;3623;47.098;15.446;2023-04-24T14:19:54;14.20;99.90
7163;DHT22;3623;47.098;15.446;2023-04-24T14:22:21;14.20;99.90
7163;DHT22;3623;47.098;15.446;2023-04-24T14:24:49;14.10;99.90
7163;DHT22;3623;47.098;15.446;2023-04-24T14:27:16;14.10;99.90
7163;DHT22;3623;47.098;15.446;2023-04-24T14:29:44;14.10;99.90
7163;DHT22;3623;47.098;15.446;2023-04-24T14:32:14;14.00;99.90
7163;DHT22;3623;47.098;15.446;2023-04-24T14:34:41;13.90;99.90
7163;DHT22;3623;47.098;15.446;2023-04-24T14:37:09;13.80;99.90
7163;DHT22;3623;47.098;15.446;2023-04-24T14:39:36;13.90;99.90
7163;DHT22;3623;47.098;15.446;2023-04-24T14:42:03;13.90;99.90
7163;DHT22;3623;47.098;15.446;2023-04-24T14:44:30;13.90;99.90
7163;DHT22;3623;47.098;15.446;2023-04-24T14:46:59;13.80;99.90
7163;DHT22;3623;47.098;15.446;2023-04-24T14:49:27;13.80;99.90
7163;DHT22;3623;47.098;15.446;2023-04-24T14:51:54;13.80;99.90
7163;DHT22;3623;47.098;15.446;2023-04-24T14:54:21;13.80;99.90
7163;DHT22;3623;47.098;15.446;2023-04-24T14:56:49;13.70;99.90
7163;DHT22;3623;47.098;15.446;2023-04-24T14:59:16;13.70;99.90
7163;DHT22;3623;47.098;15.446;2023-04-24T15:01:43;13.60;99.90
7163;DHT22;3623;47.098;15.446;2023-04-24T15:04:12;13.50;99.90
7163;DHT22;3623;47.098;15.446;2023-04-24T15:06:48;13.40;99.90
7163;DHT22;3623;47.098;15.446;2023-04-24T15:09:15;13.40;99.90
7163;DHT22;3623;47.098;15.446;2023-04-24T15:11:43;13.40;99.90
7163;DHT22;3623;47.098;15.446;2023-04-24T15:14:10;13.30;99.90
7163;DHT22;3623;47.098;15.446;2023-04-24T15:16:37;13.20;99.90
7163;DHT22;3623;47.098;15.446;2023-04-24T15:19:04;13.20;99.90
7163;DHT22;3623;47.098;15.446;2023-04-24T15:21:33;13.20;99.90
7163;DHT22;3623;47.098;15.446;2023-04-24T15:24:00;13.20;99.90
7163;DHT22;3623;47.098;15.446;2023-04-24T15:26:27;13.10;99.90
7163;DHT22;3623;47.098;15.446;2023-04-24T15:28:54;13.00;99.90
7163;DHT22;3623;47.098;15.446;2023-04-24T15:31:23;13.00;99.90
7163;DHT22;3623;47.098;15.446;2023-04-24T15:33:50;13.00;99.90
7163;DHT22;3623;47.098;15.446;2023-04-24T15:36:18;13.00;99.90
7163;DHT22;3623;47.098;15.446;2023-04-24T15:38:47;13.00;99.90
7163;DHT22;3623;47.098;15.446;2023-04-24T15:41:14;13.00;99.90
7163;DHT22;3623;47.098;15.446;2023-04-24T15:44:05;13.00;99.90
7163;DHT22;3623;47.098;15.446;2023-04-24T15:46:35;12.80;99.90
7163;DHT22;3623;47.098;15.446;2023-04-24T15:49:11;12.70;99.90
7163;DHT22;3623;47.098;15.446;2023-04-24T15:51:41;12.00;99.90
7163;DHT22;3623;47.098;15.446;2023-04-24T15:54:14;11.80;99.90
7163;DHT22;3623;47.098;15.446;2023-04-24T15:56:44;11.50;99.90
7163;DHT22;3623;47.098;15.446;2023-04-24T15:59:23;11.30;99.90
7163;DHT22;3623;47.098;15.446;2023-04-24T16:01:51;11.60;99.90
7163;DHT22;3623;47.098;15.446;2023-04-24T16:04:20;11.10;99.90
7163;DHT22;3623;47.098;15.446;2023-04-24T16:06:57;11.10;99.90
7163;DHT22;3623;47.098;15.446;2023-04-24T16:09:30;11.90;99.90
7163;DHT22;3623;47.098;15.446;2023-04-24T16:12:11;10.80;99.90
7163;DHT22;3623;47.098;15.446;2023-04-24T16:14:39;10.80;99.90
7163;DHT22;3623;47.098;15.446;2023-04-24T16:17:15;10.80;99.90
7163;DHT22;3623;47.098;15.446;2023-04-24T16:19:51;11.10;99.90
7163;DHT22;3623;47.098;15.446;2023-04-24T16:22:24;10.80;99.90
7163;DHT22;3623;47.098;15.446;2023-04-24T16:25:10;10.70;99.90
7163;DHT22;3623;47.098;15.446;2023-04-24T16:27:38;10.70;99.90
7163;DHT22;3623;47.098;15.446;2023-04-24T16:32:51;10.70;99.90
7163;DHT22;3623;47.098;15.446;2023-04-24T16:35:38;10.70;99.90
7163;DHT22;3623;47.098;15.446;2023-04-24T16:38:14;10.70;99.90
7163;DHT22;3623;47.098;15.446;2023-04-24T16:43:58;11.20;99.90
7163;DHT22;3623;47.098;15.446;2023-04-24T16:46:40;10.60;99.90
7163;DHT22;3623;47.098;15.446;2023-04-24T16:52:16;11.10;99.90
7163;DHT22;3623;47.098;15.446;2023-04-24T16:54:46;10.60;99.90
7163;DHT22;3623;47.098;15.446;2023-04-24T16:57:14;10.60;99.90
7163;DHT22;3623;47.098;15.446;2023-04-24T16:59:43;10.60;99.90
7163;DHT22;3623;47.098;15.446;2023-04-24T17:02:10;10.60;99.90
7163;DHT22;3623;47.098;15.446;2023-04-24T17:04:38;10.60;99.90
7163;DHT22;3623;47.098;15.446;2023-04-24T17:07:06;10.60;99.90
7163;DHT22;3623;47.098;15.446;2023-04-24T17:09:33;10.10;99.90
7163;DHT22;3623;47.098;15.446;2023-04-24T17:12:01;10.50;99.90
7163;DHT22;3623;47.098;15.446;2023-04-24T17:14:31;10.50;99.90
7163;DHT22;3623;47.098;15.446;2023-04-24T17:17:01;10.40;99.90
7163;DHT22;3623;47.098;15.446;2023-04-24T17:19:32;10.30;99.90